Time;durP1;ratioP1;P1;durP2;ratioP2;P2;SDS_P1;SDS_P2;PMS_P1;PMS_P2;Temp;Humidity;BMP_temperature;BMP_pressure;BME280_temperature;BME280_humidity;BME280_pressure;Samples;Min_cycle;Max_cycle;Signal;HPM_P1;HPM_P2
2023/05/24 00:02:08;;;;;;;;;;;17.00;99.90;;;;;;5033190;28;19999;-40
2023/05/24 00:04:33;;;;;;;;;;;16.90;99.90;;;;;;5032959;28;20019;-40
2023/05/24 00:07:02;;;;;;;;;;;17.00;99.90;;;;;;5032556;28;19916;-40
2023/05/24 00:09:30;;;;;;;;;;;17.00;99.90;;;;;;5033170;28;19928;-39
2023/05/24 00:11:56;;;;;;;;;;;17.00;99.90;;;;;;5032950;28;19915;-40
2023/05/24 00:14:21;;;;;;;;;;;17.00;99.90;;;;;;5032862;28;19999;-41
2023/05/24 00:16:47;;;;;;;;;;;16.90;99.90;;;;;;5032308;28;19996;-40
2023/05/24 00:19:17;;;;;;;;;;;16.90;99.90;;;;;;5032782;28;19909;-40
2023/05/24 00:21:43;;;;;;;;;;;16.90;99.90;;;;;;5032824;28;19984;-41
2023/05/24 00:24:09;;;;;;;;;;;16.90;99.90;;;;;;5032799;28;19912;-41
2023/05/24 00:26:35;;;;;;;;;;;16.90;99.90;;;;;;5031561;28;19913;-40
2023/05/24 00:29:01;;;;;;;;;;;16.90;99.90;;;;;;5032719;28;19994;-40
2023/05/24 00:31:26;;;;;;;;;;;16.90;99.90;;;;;;5032525;28;19912;-40
2023/05/24 00:33:52;;;;;;;;;;;16.90;99.90;;;;;;5032464;28;19928;-41
2023/05/24 00:36:17;;;;;;;;;;;16.90;99.90;;;;;;5031992;28;20370;-41
2023/05/24 00:38:43;;;;;;;;;;;16.90;99.90;;;;;;5032432;28;19912;-40
2023/05/24 00:41:10;;;;;;;;;;;16.90;99.90;;;;;;5032307;28;19905;-40
2023/05/24 00:43:36;;;;;;;;;;;16.90;99.90;;;;;;5032317;28;20427;-41
2023/05/24 00:46:16;;;;;;;;;;;16.90;99.90;;;;;;5031701;28;20353;-41
2023/05/24 00:48:43;;;;;;;;;;;16.90;99.90;;;;;;5032296;28;20366;-40
2023/05/24 00:51:09;;;;;;;;;;;16.90;99.90;;;;;;5032269;28;19904;-40
2023/05/24 00:53:36;;;;;;;;;;;16.90;99.90;;;;;;5032186;28;19905;-40
2023/05/24 00:56:01;;;;;;;;;;;16.90;99.90;;;;;;5031683;28;19951;-40
2023/05/24 00:58:29;;;;;;;;;;;16.90;99.90;;;;;;5032072;28;19936;-41
2023/05/24 01:00:58;;;;;;;;;;;16.90;99.90;;;;;;5032301;28;19916;-41
2023/05/24 01:03:25;;;;;;;;;;;16.90;99.90;;;;;;5032167;28;19904;-39
2023/05/24 01:05:51;;;;;;;;;;;16.90;99.90;;;;;;5031722;28;19972;-39
2023/05/24 01:08:35;;;;;;;;;;;16.80;99.90;;;;;;5031790;28;19934;-41
2023/05/24 01:11:09;;;;;;;;;;;16.80;99.90;;;;;;5031916;28;20326;-40
2023/05/24 01:13:39;;;;;;;;;;;16.80;99.90;;;;;;5032085;28;20301;-40
2023/05/24 01:16:10;;;;;;;;;;;16.80;99.90;;;;;;5031408;28;19905;-40
2023/05/24 01:18:43;;;;;;;;;;;16.80;99.90;;;;;;5031957;28;20331;-42
2023/05/24 01:21:11;;;;;;;;;;;16.80;99.90;;;;;;5031751;28;19920;-43
2023/05/24 01:23:55;;;;;;;;;;;16.80;99.90;;;;;;5031531;28;19991;-39
2023/05/24 01:26:30;;;;;;;;;;;16.80;99.90;;;;;;5031069;28;19928;-41
2023/05/24 01:28:56;;;;;;;;;;;16.80;99.90;;;;;;5031721;28;19994;-40
2023/05/24 01:31:21;;;;;;;;;;;16.80;99.90;;;;;;5031636;28;20370;-41
2023/05/24 01:33:47;;;;;;;;;;;16.80;99.90;;;;;;5031530;28;19916;-40
2023/05/24 01:36:12;;;;;;;;;;;16.80;99.90;;;;;;5030943;28;20051;-40
2023/05/24 01:38:39;;;;;;;;;;;16.80;99.90;;;;;;5030708;28;20009;-40
2023/05/24 01:41:14;;;;;;;;;;;16.80;99.90;;;;;;5031490;28;19917;-39
2023/05/24 01:43:42;;;;;;;;;;;16.70;99.90;;;;;;5031863;28;19925;-39
2023/05/24 01:46:19;;;;;;;;;;;16.80;99.90;;;;;;5030882;28;20018;-40
2023/05/24 01:48:54;;;;;;;;;;;16.70;99.90;;;;;;5031378;28;19912;-40
2023/05/24 01:51:22;;;;;;;;;;;16.80;99.90;;;;;;5031467;28;19916;-40
2023/05/24 01:53:49;;;;;;;;;;;16.70;99.90;;;;;;5031420;28;19908;-41
2023/05/24 01:56:16;;;;;;;;;;;16.70;99.90;;;;;;5030915;28;19955;-39
2023/05/24 01:58:43;;;;;;;;;;;16.70;99.90;;;;;;5031379;28;19905;-40
2023/05/24 02:01:08;;;;;;;;;;;16.70;99.90;;;;;;5031237;28;20378;-41
2023/05/24 02:03:37;;;;;;;;;;;16.70;99.90;;;;;;5031300;28;19911;-40
2023/05/24 02:06:02;;;;;;;;;;;16.70;99.90;;;;;;5030961;28;19916;-39
2023/05/24 02:08:28;;;;;;;;;;;16.70;99.90;;;;;;5031521;28;19909;-39
2023/05/24 02:10:53;;;;;;;;;;;16.70;99.90;;;;;;5031206;28;19905;-40
2023/05/24 02:13:19;;;;;;;;;;;16.60;99.90;;;;;;5031197;28;19995;-41
2023/05/24 02:15:46;;;;;;;;;;;16.70;99.90;;;;;;5030877;28;20005;-43
2023/05/24 02:18:12;;;;;;;;;;;16.70;99.90;;;;;;5030923;28;20362;-40
2023/05/24 02:20:38;;;;;;;;;;;16.70;99.90;;;;;;5031181;28;19956;-40
2023/05/24 02:23:04;;;;;;;;;;;16.70;99.90;;;;;;5031017;28;20294;-39
2023/05/24 02:25:30;;;;;;;;;;;16.70;99.90;;;;;;5031034;28;19917;-39
2023/05/24 02:27:56;;;;;;;;;;;16.60;99.90;;;;;;5030445;28;20319;-40
2023/05/24 02:30:21;;;;;;;;;;;16.70;99.90;;;;;;5031372;28;20421;-40
2023/05/24 02:32:47;;;;;;;;;;;16.70;99.90;;;;;;5031009;28;19954;-40
2023/05/24 02:35:13;;;;;;;;;;;16.70;99.90;;;;;;5031015;28;19905;-40
2023/05/24 02:37:38;;;;;;;;;;;16.70;99.90;;;;;;5030511;28;19974;-40
2023/05/24 02:40:04;;;;;;;;;;;16.70;99.90;;;;;;5031036;28;20067;-39
2023/05/24 02:42:29;;;;;;;;;;;16.70;99.90;;;;;;5030981;28;19905;-41
2023/05/24 02:44:55;;;;;;;;;;;16.70;99.90;;;;;;5031089;28;20354;-40
2023/05/24 02:47:20;;;;;;;;;;;16.60;99.90;;;;;;5030448;28;20432;-40
2023/05/24 02:49:46;;;;;;;;;;;16.60;99.90;;;;;;5032551;28;20002;-40
2023/05/24 02:52:12;;;;;;;;;;;16.60;99.90;;;;;;5034707;28;19990;-40
2023/05/24 02:54:38;;;;;;;;;;;16.60;99.90;;;;;;5035170;28;19917;-40
2023/05/24 02:57:05;;;;;;;;;;;16.60;99.90;;;;;;5033852;28;19916;-40
2023/05/24 02:59:31;;;;;;;;;;;16.60;99.90;;;;;;5034308;28;19905;-39
2023/05/24 03:01:56;;;;;;;;;;;16.60;99.90;;;;;;5034373;28;20291;-40
2023/05/24 03:04:22;;;;;;;;;;;16.60;99.90;;;;;;5034150;28;19905;-40
2023/05/24 03:06:47;;;;;;;;;;;16.60;99.90;;;;;;5033755;28;19944;-40
2023/05/24 03:09:15;;;;;;;;;;;16.60;99.90;;;;;;5034130;28;20404;-40
2023/05/24 03:11:40;;;;;;;;;;;16.60;99.90;;;;;;5034190;28;19905;-40
2023/05/24 03:14:08;;;;;;;;;;;16.60;99.90;;;;;;5033939;28;19920;-40
2023/05/24 03:16:34;;;;;;;;;;;16.60;99.90;;;;;;5033596;28;19909;-41
2023/05/24 03:19:00;;;;;;;;;;;16.60;99.90;;;;;;5034041;28;19916;-40
2023/05/24 03:21:26;;;;;;;;;;;16.60;99.90;;;;;;5033983;28;19905;-41
2023/05/24 03:23:51;;;;;;;;;;;16.60;99.90;;;;;;5033877;28;19912;-40
2023/05/24 03:26:20;;;;;;;;;;;16.60;99.90;;;;;;5033314;28;19909;-40
2023/05/24 03:28:46;;;;;;;;;;;16.60;99.90;;;;;;5033730;28;19905;-40
2023/05/24 03:31:12;;;;;;;;;;;16.50;99.90;;;;;;5034009;28;20000;-41
2023/05/24 03:33:38;;;;;;;;;;;16.50;99.90;;;;;;5033740;28;19924;-40
2023/05/24 03:36:04;;;;;;;;;;;16.50;99.90;;;;;;5033238;28;19915;-40
2023/05/24 03:38:30;;;;;;;;;;;16.50;99.90;;;;;;5033679;28;19905;-40
2023/05/24 03:40:56;;;;;;;;;;;16.50;99.90;;;;;;5033710;28;19909;-39
2023/05/24 03:43:21;;;;;;;;;;;16.50;99.90;;;;;;5033353;28;20396;-40
2023/05/24 03:45:47;;;;;;;;;;;16.50;99.90;;;;;;5033280;28;19909;-40
2023/05/24 03:48:12;;;;;;;;;;;16.50;99.90;;;;;;5033391;28;20333;-41
2023/05/24 03:50:38;;;;;;;;;;;16.50;99.90;;;;;;5033513;28;20289;-40
2023/05/24 03:53:03;;;;;;;;;;;16.50;99.90;;;;;;5033253;28;19905;-40
2023/05/24 03:55:29;;;;;;;;;;;16.50;99.90;;;;;;5033334;28;19905;-39
2023/05/24 03:57:54;;;;;;;;;;;16.50;99.90;;;;;;5032722;28;19905;-40
2023/05/24 04:00:20;;;;;;;;;;;16.50;99.90;;;;;;5032869;28;19905;-39
2023/05/24 04:02:46;;;;;;;;;;;16.40;99.90;;;;;;5032652;28;19959;-40
2023/05/24 04:05:12;;;;;;;;;;;16.40;99.90;;;;;;5033074;28;19959;-40
2023/05/24 04:07:38;;;;;;;;;;;16.50;99.90;;;;;;5032937;28;19908;-40
2023/05/24 04:10:05;;;;;;;;;;;16.40;99.90;;;;;;5033047;28;19912;-40
2023/05/24 04:12:31;;;;;;;;;;;16.40;99.90;;;;;;5032968;28;19905;-40
2023/05/24 04:14:57;;;;;;;;;;;16.40;99.90;;;;;;5032872;28;19951;-41
2023/05/24 04:17:23;;;;;;;;;;;16.40;99.90;;;;;;5032478;28;19909;-40
2023/05/24 04:19:49;;;;;;;;;;;16.40;99.90;;;;;;5032823;28;20380;-40
2023/05/24 04:22:16;;;;;;;;;;;16.40;99.90;;;;;;5032876;28;19905;-40
2023/05/24 04:24:42;;;;;;;;;;;16.40;99.90;;;;;;5032675;28;20278;-40
2023/05/24 04:27:08;;;;;;;;;;;16.40;99.90;;;;;;5032143;28;19913;-40
2023/05/24 04:29:34;;;;;;;;;;;16.40;99.90;;;;;;5032755;28;20223;-39
2023/05/24 04:31:59;;;;;;;;;;;16.40;99.90;;;;;;5032688;28;19905;-40
2023/05/24 04:34:28;;;;;;;;;;;16.40;99.90;;;;;;5032462;28;19959;-40
2023/05/24 04:36:54;;;;;;;;;;;16.40;99.90;;;;;;5032041;28;19909;-40
2023/05/24 04:39:20;;;;;;;;;;;16.40;99.90;;;;;;5032516;28;19909;-40
2023/05/24 04:41:46;;;;;;;;;;;16.40;99.90;;;;;;5032459;28;20013;-41
2023/05/24 04:44:11;;;;;;;;;;;16.40;99.90;;;;;;5032294;28;19913;-39
2023/05/24 04:46:36;;;;;;;;;;;16.40;99.90;;;;;;5031766;28;19909;-40
2023/05/24 04:49:04;;;;;;;;;;;16.40;99.90;;;;;;5032332;28;19959;-39
2023/05/24 04:51:29;;;;;;;;;;;16.20;99.90;;;;;;5032212;28;19916;-39
2023/05/24 04:53:55;;;;;;;;;;;16.10;99.90;;;;;;5032137;28;19909;-41
2023/05/24 04:56:21;;;;;;;;;;;15.90;99.90;;;;;;5031649;28;19905;-39
2023/05/24 04:58:47;;;;;;;;;;;15.90;99.90;;;;;;5032284;28;19988;-41
2023/05/24 05:01:12;;;;;;;;;;;15.90;99.90;;;;;;5032082;28;19999;-39
2023/05/24 05:03:38;;;;;;;;;;;15.90;99.90;;;;;;5031918;28;20412;-39
2023/05/24 05:06:03;;;;;;;;;;;15.90;99.90;;;;;;5031447;28;19917;-40
2023/05/24 05:08:29;;;;;;;;;;;16.00;99.90;;;;;;5031913;28;19905;-41
2023/05/24 05:10:55;;;;;;;;;;;16.00;99.90;;;;;;5031927;28;19940;-42
2023/05/24 05:13:21;;;;;;;;;;;16.00;99.90;;;;;;5031934;28;19952;-40
2023/05/24 05:15:46;;;;;;;;;;;16.10;99.90;;;;;;5031599;28;19905;-42
2023/05/24 05:18:12;;;;;;;;;;;16.10;99.90;;;;;;5031620;28;19905;-41
2023/05/24 05:20:37;;;;;;;;;;;16.10;99.90;;;;;;5031799;28;19909;-41
2023/05/24 05:23:02;;;;;;;;;;;16.10;99.90;;;;;;5031658;28;20353;-40
2023/05/24 05:25:29;;;;;;;;;;;16.10;99.90;;;;;;5031575;28;19913;-41
2023/05/24 05:27:55;;;;;;;;;;;16.10;99.90;;;;;;5031354;28;19932;-39
2023/05/24 05:30:20;;;;;;;;;;;16.10;99.90;;;;;;5031755;28;19947;-43
2023/05/24 05:32:46;;;;;;;;;;;16.10;99.90;;;;;;5031629;28;20308;-40
2023/05/24 05:35:11;;;;;;;;;;;16.10;99.90;;;;;;5031696;28;20384;-41
2023/05/24 05:37:37;;;;;;;;;;;16.20;99.90;;;;;;5031103;28;19909;-40
2023/05/24 05:40:03;;;;;;;;;;;16.20;99.90;;;;;;5031567;28;19909;-41
2023/05/24 05:42:28;;;;;;;;;;;16.20;99.90;;;;;;5031560;28;19955;-45
2023/05/24 05:44:54;;;;;;;;;;;16.20;99.90;;;;;;5031329;28;19913;-41
2023/05/24 05:47:19;;;;;;;;;;;16.20;99.90;;;;;;5030953;28;19905;-40
2023/05/24 05:49:45;;;;;;;;;;;16.20;99.90;;;;;;5031427;28;19906;-41
2023/05/24 05:52:11;;;;;;;;;;;16.20;99.90;;;;;;5031438;28;20169;-43
2023/05/24 05:54:36;;;;;;;;;;;16.20;99.90;;;;;;5031249;28;19909;-40
2023/05/24 05:57:02;;;;;;;;;;;16.30;99.90;;;;;;5030847;28;20401;-41
2023/05/24 05:59:27;;;;;;;;;;;16.20;99.90;;;;;;5031387;28;20402;-41
2023/05/24 06:01:53;;;;;;;;;;;16.20;99.90;;;;;;5031340;28;20289;-41
2023/05/24 06:04:19;;;;;;;;;;;16.30;99.90;;;;;;5031155;28;20290;-41
2023/05/24 06:06:48;;;;;;;;;;;16.20;99.90;;;;;;5030678;28;19909;-39
2023/05/24 06:09:14;;;;;;;;;;;16.30;99.90;;;;;;5031213;28;19952;-40
2023/05/24 06:11:43;;;;;;;;;;;16.20;99.90;;;;;;5031249;28;20317;-40
2023/05/24 06:14:10;;;;;;;;;;;16.20;99.90;;;;;;5031119;28;19920;-42
2023/05/24 06:16:40;;;;;;;;;;;16.30;99.90;;;;;;5030679;28;19931;-39
2023/05/24 06:19:06;;;;;;;;;;;16.20;99.90;;;;;;5031146;28;20019;-39
2023/05/24 06:21:32;;;;;;;;;;;16.20;99.90;;;;;;5031052;28;19905;-41
2023/05/24 06:23:58;;;;;;;;;;;16.20;99.90;;;;;;5031364;28;20362;-43
2023/05/24 06:26:25;;;;;;;;;;;16.30;99.90;;;;;;5034453;28;19909;-39
2023/05/24 06:28:51;;;;;;;;;;;16.20;99.90;;;;;;5034972;28;20370;-41
2023/05/24 06:31:17;;;;;;;;;;;16.20;99.90;;;;;;5034878;28;19995;-43
2023/05/24 06:33:43;;;;;;;;;;;16.30;99.90;;;;;;5034765;28;19912;-41
2023/05/24 06:36:08;;;;;;;;;;;16.30;99.90;;;;;;5034248;28;20484;-40
2023/05/24 06:38:35;;;;;;;;;;;16.20;99.90;;;;;;5034825;28;20378;-41
2023/05/24 06:41:00;;;;;;;;;;;16.30;99.90;;;;;;5034770;28;19913;-40
2023/05/24 06:43:26;;;;;;;;;;;16.30;99.90;;;;;;5034537;28;19959;-41
2023/05/24 06:45:51;;;;;;;;;;;16.20;99.90;;;;;;5034221;28;19999;-40
2023/05/24 06:48:17;;;;;;;;;;;16.30;99.90;;;;;;5034342;28;20333;-47
2023/05/24 06:50:43;;;;;;;;;;;16.30;99.90;;;;;;5034417;28;19912;-41
2023/05/24 06:53:09;;;;;;;;;;;16.30;99.90;;;;;;5034415;28;19945;-44
2023/05/24 06:55:35;;;;;;;;;;;16.30;99.90;;;;;;5034387;28;20386;-45
2023/05/24 06:58:01;;;;;;;;;;;16.20;99.90;;;;;;5033984;28;19983;-41
2023/05/24 07:00:26;;;;;;;;;;;16.20;99.90;;;;;;5034449;28;20293;-42
2023/05/24 07:02:52;;;;;;;;;;;16.30;99.90;;;;;;5034186;28;20286;-41
2023/05/24 07:05:17;;;;;;;;;;;16.20;99.90;;;;;;5034077;28;19963;-38
2023/05/24 07:07:43;;;;;;;;;;;16.30;99.90;;;;;;5033633;28;19905;-41
2023/05/24 07:10:09;;;;;;;;;;;16.30;99.90;;;;;;5034168;28;19905;-42
2023/05/24 07:12:35;;;;;;;;;;;16.30;99.90;;;;;;5034075;28;19905;-40
2023/05/24 07:15:01;;;;;;;;;;;16.30;99.90;;;;;;5034121;28;20270;-42
2023/05/24 07:17:27;;;;;;;;;;;16.30;99.90;;;;;;5033575;28;19905;-39
2023/05/24 07:19:52;;;;;;;;;;;16.30;99.90;;;;;;5033940;28;20003;-43
2023/05/24 07:22:18;;;;;;;;;;;16.30;99.90;;;;;;5033998;28;19908;-40
2023/05/24 07:24:43;;;;;;;;;;;16.30;99.90;;;;;;5033768;28;19952;-41
2023/05/24 07:27:08;;;;;;;;;;;16.30;99.90;;;;;;5033414;28;19966;-39
2023/05/24 07:29:34;;;;;;;;;;;16.30;99.90;;;;;;5033686;28;19905;-40
2023/05/24 07:32:00;;;;;;;;;;;16.30;99.90;;;;;;5033754;28;19927;-43
2023/05/24 07:34:28;;;;;;;;;;;16.30;99.90;;;;;;5033698;28;20289;-41
2023/05/24 07:36:55;;;;;;;;;;;16.20;99.90;;;;;;5031942;28;19909;-41
2023/05/24 07:39:21;;;;;;;;;;;16.30;99.90;;;;;;5033682;28;19913;-40
2023/05/24 07:41:46;;;;;;;;;;;16.30;99.90;;;;;;5033995;28;19911;-43
2023/05/24 07:44:12;;;;;;;;;;;16.30;99.90;;;;;;5033871;28;19920;-42
2023/05/24 07:46:38;;;;;;;;;;;16.30;99.90;;;;;;5032940;28;19920;-41
2023/05/24 07:49:03;;;;;;;;;;;16.20;99.90;;;;;;5033387;28;19916;-41
2023/05/24 07:51:29;;;;;;;;;;;16.30;99.90;;;;;;5033407;28;20316;-40
2023/05/24 07:53:54;;;;;;;;;;;16.30;99.90;;;;;;5033288;28;19909;-40
2023/05/24 07:56:20;;;;;;;;;;;16.30;99.90;;;;;;5032901;28;19909;-40
2023/05/24 07:58:46;;;;;;;;;;;16.30;99.90;;;;;;5033288;28;19905;-41
2023/05/24 08:01:13;;;;;;;;;;;16.30;99.90;;;;;;5033202;28;19962;-41
2023/05/24 08:03:38;;;;;;;;;;;16.30;99.90;;;;;;5033038;28;19916;-41
2023/05/24 08:06:04;;;;;;;;;;;16.30;99.90;;;;;;5032613;28;19909;-39
2023/05/24 08:08:29;;;;;;;;;;;16.30;99.90;;;;;;5033319;28;20351;-45
2023/05/24 08:10:55;;;;;;;;;;;16.30;99.90;;;;;;5033058;28;19909;-39
2023/05/24 08:13:21;;;;;;;;;;;16.30;99.90;;;;;;5032951;28;19909;-40
2023/05/24 08:15:46;;;;;;;;;;;16.30;99.90;;;;;;5032657;28;19905;-40
2023/05/24 08:18:12;;;;;;;;;;;16.30;99.90;;;;;;5032562;28;19909;-40
2023/05/24 08:20:37;;;;;;;;;;;16.30;99.90;;;;;;5032888;28;20353;-40
2023/05/24 08:23:03;;;;;;;;;;;16.30;99.90;;;;;;5032713;28;19905;-40
2023/05/24 08:25:28;;;;;;;;;;;16.30;99.90;;;;;;5032721;28;19913;-42
2023/05/24 08:27:56;;;;;;;;;;;16.30;99.90;;;;;;5032246;28;19905;-39
2023/05/24 08:30:22;;;;;;;;;;;16.30;99.90;;;;;;5032671;28;20356;-40
2023/05/24 08:32:47;;;;;;;;;;;16.30;99.90;;;;;;5032440;28;19905;-40
2023/05/24 08:35:13;;;;;;;;;;;16.40;99.90;;;;;;5032773;28;19915;-39
2023/05/24 08:37:38;;;;;;;;;;;16.40;99.90;;;;;;5032057;28;19928;-38
2023/05/24 08:40:04;;;;;;;;;;;16.40;99.90;;;;;;5032507;28;20015;-42
2023/05/24 08:42:30;;;;;;;;;;;16.40;99.90;;;;;;5032450;28;20350;-41
2023/05/24 08:45:03;;;;;;;;;;;16.40;99.90;;;;;;5032510;28;19916;-42
2023/05/24 08:47:29;;;;;;;;;;;16.40;99.90;;;;;;5031333;28;19909;-41
2023/05/24 08:49:55;;;;;;;;;;;16.40;99.90;;;;;;5032298;28;20279;-41
2023/05/24 08:52:21;;;;;;;;;;;16.40;99.90;;;;;;5032233;28;19905;-43
2023/05/24 08:54:47;;;;;;;;;;;16.40;99.90;;;;;;5032313;28;19947;-41
2023/05/24 08:57:14;;;;;;;;;;;16.40;99.90;;;;;;5014230;28;19909;-40
2023/05/24 08:59:40;;;;;;;;;;;16.40;99.90;;;;;;5032146;28;19928;-39
2023/05/24 09:02:07;;;;;;;;;;;16.50;99.90;;;;;;5031987;28;19909;-39
2023/05/24 09:04:35;;;;;;;;;;;16.50;99.90;;;;;;5032030;28;20031;-41
2023/05/24 09:07:00;;;;;;;;;;;16.50;99.90;;;;;;5031619;28;20044;-41
2023/05/24 09:09:27;;;;;;;;;;;16.50;99.90;;;;;;5032025;28;19905;-39
2023/05/24 09:11:55;;;;;;;;;;;16.50;99.90;;;;;;5031978;28;19912;-40
2023/05/24 09:14:21;;;;;;;;;;;16.50;99.90;;;;;;5031751;28;19959;-40
2023/05/24 09:16:46;;;;;;;;;;;16.60;99.90;;;;;;5031454;28;19952;-39
2023/05/24 09:19:12;;;;;;;;;;;16.60;99.90;;;;;;5031947;28;20000;-39
2023/05/24 09:21:39;;;;;;;;;;;16.60;99.90;;;;;;5031890;28;19913;-40
2023/05/24 09:24:07;;;;;;;;;;;16.60;99.90;;;;;;5031757;28;19962;-39
2023/05/24 09:26:35;;;;;;;;;;;16.60;99.90;;;;;;5031345;28;19956;-41
2023/05/24 09:29:00;;;;;;;;;;;16.60;99.90;;;;;;5031725;28;19912;-44
2023/05/24 09:31:33;;;;;;;;;;;16.60;99.90;;;;;;5031745;28;20346;-39
2023/05/24 09:33:58;;;;;;;;;;;16.60;99.90;;;;;;5031777;28;19916;-40
2023/05/24 09:36:24;;;;;;;;;;;16.60;99.90;;;;;;5031125;28;19990;-41
2023/05/24 09:39:16;;;;;;;;;;;16.60;99.90;;;;;;5031557;28;19916;-41
2023/05/24 09:41:42;;;;;;;;;;;16.60;99.90;;;;;;5027418;28;19959;-40
2023/05/24 09:44:11;;;;;;;;;;;16.50;99.90;;;;;;5031327;28;19924;-43
2023/05/24 09:46:39;;;;;;;;;;;16.50;99.90;;;;;;5031084;28;19916;-41
2023/05/24 09:49:08;;;;;;;;;;;16.50;99.90;;;;;;5031468;28;19920;-40
2023/05/24 09:51:37;;;;;;;;;;;16.50;99.90;;;;;;5031452;28;20358;-40
2023/05/24 09:54:04;;;;;;;;;;;16.50;99.90;;;;;;5031341;28;19992;-40
2023/05/24 09:56:31;;;;;;;;;;;16.50;99.90;;;;;;5030871;28;19905;-40
2023/05/24 09:58:57;;;;;;;;;;;16.50;99.90;;;;;;5031661;28;19992;-40
2023/05/24 10:01:24;;;;;;;;;;;16.40;99.90;;;;;;5035491;28;20012;-40
2023/05/24 10:03:53;;;;;;;;;;;16.50;99.90;;;;;;5035688;28;19912;-41
2023/05/24 10:06:19;;;;;;;;;;;16.50;99.90;;;;;;5034800;28;19913;-40
2023/05/24 10:08:47;;;;;;;;;;;16.50;99.90;;;;;;5035252;28;19951;-39
2023/05/24 10:11:12;;;;;;;;;;;16.50;99.90;;;;;;5035438;28;19909;-41
2023/05/24 10:13:38;;;;;;;;;;;16.50;99.90;;;;;;5035171;28;19916;-39
2023/05/24 10:16:04;;;;;;;;;;;16.50;99.90;;;;;;5034820;28;19909;-40
2023/05/24 10:18:29;;;;;;;;;;;16.50;99.90;;;;;;5035216;28;19908;-40
2023/05/24 10:20:58;;;;;;;;;;;16.50;99.90;;;;;;5035103;28;19905;-42
2023/05/24 10:23:25;;;;;;;;;;;16.50;99.90;;;;;;5034990;28;19944;-41
2023/05/24 10:25:55;;;;;;;;;;;16.50;99.90;;;;;;5034751;28;19916;-41
2023/05/24 10:28:21;;;;;;;;;;;16.50;99.90;;;;;;5034716;28;19905;-37
2023/05/24 10:31:11;;;;;;;;;;;16.40;99.90;;;;;;5034897;28;19908;-39
2023/05/24 10:33:37;;;;;;;;;;;16.30;99.90;;;;;;5024477;28;19912;-39
2023/05/24 10:36:04;;;;;;;;;;;16.00;99.90;;;;;;5034423;28;19904;-40
2023/05/24 10:38:30;;;;;;;;;;;15.90;99.90;;;;;;5034817;28;19905;-41
2023/05/24 10:40:56;;;;;;;;;;;15.80;99.90;;;;;;5034842;28;20333;-39
2023/05/24 10:43:22;;;;;;;;;;;15.80;99.90;;;;;;5034494;28;20386;-40
2023/05/24 10:45:48;;;;;;;;;;;15.80;99.90;;;;;;5034343;28;19959;-44
2023/05/24 10:48:14;;;;;;;;;;;15.80;99.90;;;;;;5034380;28;19905;-39
2023/05/24 10:50:40;;;;;;;;;;;15.80;99.90;;;;;;5034609;28;19972;-39
2023/05/24 10:53:29;;;;;;;;;;;15.90;99.90;;;;;;5034483;28;19999;-42
2023/05/24 10:55:59;;;;;;;;;;;15.90;99.90;;;;;;5023624;28;19909;-39
2023/05/24 10:58:44;;;;;;;;;;;15.90;99.90;;;;;;5034361;28;19916;-41
2023/05/24 11:01:23;;;;;;;;;;;15.90;99.90;;;;;;5034418;28;19909;-39
2023/05/24 11:03:49;;;;;;;;;;;15.90;99.90;;;;;;5034276;28;19909;-37
2023/05/24 11:06:14;;;;;;;;;;;15.90;99.90;;;;;;5033745;28;19991;-39
2023/05/24 11:08:42;;;;;;;;;;;16.00;99.90;;;;;;5034330;28;19916;-38
2023/05/24 11:11:11;;;;;;;;;;;16.00;99.90;;;;;;5033823;28;19905;-39
2023/05/24 11:13:37;;;;;;;;;;;16.00;99.90;;;;;;5034159;28;19909;-39
2023/05/24 11:16:03;;;;;;;;;;;16.00;99.90;;;;;;5033700;28;19978;-40
2023/05/24 11:18:29;;;;;;;;;;;16.00;99.90;;;;;;5034122;28;19909;-39
2023/05/24 11:20:56;;;;;;;;;;;16.00;99.90;;;;;;5034088;28;19905;-39
2023/05/24 11:23:22;;;;;;;;;;;16.10;99.90;;;;;;5033887;28;19908;-38
2023/05/24 11:25:48;;;;;;;;;;;16.00;99.90;;;;;;5033406;28;19916;-42
2023/05/24 11:28:13;;;;;;;;;;;16.10;99.90;;;;;;5033691;28;19905;-39
2023/05/24 11:30:39;;;;;;;;;;;16.10;99.90;;;;;;5033843;28;19913;-39
2023/05/24 11:33:12;;;;;;;;;;;16.10;99.90;;;;;;5033991;28;19912;-39
2023/05/24 11:35:38;;;;;;;;;;;16.10;99.90;;;;;;5033829;28;19911;-39
2023/05/24 11:38:08;;;;;;;;;;;16.10;99.90;;;;;;5033207;28;20004;-39
2023/05/24 11:40:33;;;;;;;;;;;16.10;99.90;;;;;;5033540;28;20255;-40
2023/05/24 11:42:59;;;;;;;;;;;16.10;99.90;;;;;;5033452;28;19967;-38
2023/05/24 11:45:25;;;;;;;;;;;16.20;99.90;;;;;;5033456;28;19963;-40
2023/05/24 11:47:50;;;;;;;;;;;16.20;99.90;;;;;;5033031;28;19905;-39
2023/05/24 11:50:22;;;;;;;;;;;16.20;99.90;;;;;;5033818;28;20187;-39
2023/05/24 11:52:48;;;;;;;;;;;16.20;99.90;;;;;;5033356;28;19913;-38
2023/05/24 11:55:15;;;;;;;;;;;16.20;99.90;;;;;;5033340;28;19912;-39
2023/05/24 11:57:46;;;;;;;;;;;16.20;99.90;;;;;;5032801;28;19991;-40
2023/05/24 12:00:16;;;;;;;;;;;16.30;99.90;;;;;;5033400;28;19905;-39
2023/05/24 12:02:41;;;;;;;;;;;16.30;99.90;;;;;;5033230;28;19912;-39
2023/05/24 12:05:13;;;;;;;;;;;16.30;99.90;;;;;;5033170;28;19909;-39
2023/05/24 12:07:39;;;;;;;;;;;16.30;99.90;;;;;;5032697;28;20047;-39
2023/05/24 12:10:05;;;;;;;;;;;16.30;99.90;;;;;;5033036;28;19956;-39
2023/05/24 12:12:32;;;;;;;;;;;16.40;99.90;;;;;;5033009;28;20440;-40
2023/05/24 12:14:57;;;;;;;;;;;16.40;99.90;;;;;;5032945;28;19912;-39
2023/05/24 12:17:23;;;;;;;;;;;16.40;99.90;;;;;;5032422;28;20298;-40
2023/05/24 12:19:49;;;;;;;;;;;16.40;99.90;;;;;;5032860;28;19920;-40
2023/05/24 12:22:15;;;;;;;;;;;16.40;99.90;;;;;;5032152;28;19909;-39
2023/05/24 12:24:41;;;;;;;;;;;16.40;99.90;;;;;;5032696;28;19909;-39
2023/05/24 12:27:07;;;;;;;;;;;16.50;99.90;;;;;;5032258;28;19920;-40
2023/05/24 12:29:34;;;;;;;;;;;16.50;99.90;;;;;;5032525;28;20433;-39
2023/05/24 12:31:59;;;;;;;;;;;16.50;99.90;;;;;;5032749;28;19909;-39
2023/05/24 12:34:25;;;;;;;;;;;16.50;99.90;;;;;;5032471;28;19916;-39
2023/05/24 12:36:51;;;;;;;;;;;16.50;99.90;;;;;;5032097;28;19909;-40
2023/05/24 12:39:17;;;;;;;;;;;16.50;99.90;;;;;;5032538;28;20004;-40
2023/05/24 12:41:44;;;;;;;;;;;16.50;99.90;;;;;;5032645;28;19995;-39
2023/05/24 12:44:10;;;;;;;;;;;16.50;99.90;;;;;;5032335;28;19923;-39
2023/05/24 12:46:36;;;;;;;;;;;16.50;99.90;;;;;;5031831;28;19920;-39
2023/05/24 12:49:03;;;;;;;;;;;16.60;99.90;;;;;;5032706;28;19909;-40
2023/05/24 12:51:29;;;;;;;;;;;16.60;99.90;;;;;;5032317;28;19908;-39
2023/05/24 12:53:55;;;;;;;;;;;16.60;99.90;;;;;;5032180;28;20443;-39
2023/05/24 12:56:21;;;;;;;;;;;16.50;99.90;;;;;;5031730;28;19940;-40
2023/05/24 12:58:47;;;;;;;;;;;16.50;99.90;;;;;;5032221;28;20396;-39
2023/05/24 13:01:12;;;;;;;;;;;16.60;99.90;;;;;;5032155;28;19905;-40
2023/05/24 13:03:38;;;;;;;;;;;16.60;99.90;;;;;;5032010;28;19909;-39
2023/05/24 13:06:05;;;;;;;;;;;16.60;99.90;;;;;;5031899;28;19912;-39
2023/05/24 13:08:31;;;;;;;;;;;16.60;99.90;;;;;;5032179;28;19987;-40
2023/05/24 13:10:56;;;;;;;;;;;16.60;99.90;;;;;;5032190;28;20351;-39
2023/05/24 13:13:23;;;;;;;;;;;16.60;99.90;;;;;;5031901;28;19909;-39
2023/05/24 13:15:49;;;;;;;;;;;16.60;99.90;;;;;;5031586;28;19905;-40
2023/05/24 13:18:15;;;;;;;;;;;16.60;99.90;;;;;;5031616;28;19967;-39
2023/05/24 13:20:40;;;;;;;;;;;16.60;99.90;;;;;;5031869;28;19905;-39
2023/05/24 13:23:06;;;;;;;;;;;16.60;99.90;;;;;;5013940;28;19909;-39
2023/05/24 13:25:31;;;;;;;;;;;16.70;99.90;;;;;;5031774;28;20085;-39
2023/05/24 13:27:58;;;;;;;;;;;16.70;99.90;;;;;;5031281;28;19908;-40
2023/05/24 13:30:26;;;;;;;;;;;16.70;99.90;;;;;;5031714;28;20329;-40
2023/05/24 13:32:53;;;;;;;;;;;16.70;99.90;;;;;;5031543;28;19909;-39
2023/05/24 13:35:18;;;;;;;;;;;16.70;99.90;;;;;;5031841;28;20295;-39
2023/05/24 13:37:44;;;;;;;;;;;16.70;99.90;;;;;;5031508;28;19947;-40
2023/05/24 13:40:10;;;;;;;;;;;16.70;99.90;;;;;;5031657;28;19991;-39
2023/05/24 13:42:35;;;;;;;;;;;16.70;99.90;;;;;;5031478;28;19913;-39
2023/05/24 13:45:02;;;;;;;;;;;16.70;99.90;;;;;;5031900;28;19920;-39
2023/05/24 13:47:28;;;;;;;;;;;16.70;99.90;;;;;;5030900;28;19905;-40
2023/05/24 13:49:53;;;;;;;;;;;16.70;99.90;;;;;;5031651;28;20032;-39
2023/05/24 13:52:19;;;;;;;;;;;16.70;99.90;;;;;;5031500;28;19913;-39
2023/05/24 13:54:45;;;;;;;;;;;16.70;99.90;;;;;;5031358;28;20390;-40
2023/05/24 13:57:10;;;;;;;;;;;16.70;99.90;;;;;;5030944;28;20289;-39
2023/05/24 13:59:36;;;;;;;;;;;16.70;99.90;;;;;;5031422;28;20367;-39
2023/05/24 14:02:01;;;;;;;;;;;16.70;99.90;;;;;;5031501;28;20277;-38
2023/05/24 14:04:29;;;;;;;;;;;16.80;99.90;;;;;;5031332;28;20286;-39
2023/05/24 14:06:54;;;;;;;;;;;16.80;99.90;;;;;;5030759;28;20319;-40
2023/05/24 14:09:20;;;;;;;;;;;16.80;99.90;;;;;;5031242;28;19905;-40
2023/05/24 14:11:46;;;;;;;;;;;16.80;99.90;;;;;;5031358;28;19905;-39
2023/05/24 14:14:11;;;;;;;;;;;16.80;99.90;;;;;;5013492;28;19905;-37